createdAt,value
2022-12-04T00:00:31.901Z,1024.29
2022-12-04T00:01:32.090Z,1024.28
2022-12-04T00:02:32.299Z,1024.29
2022-12-04T00:03:32.469Z,1024.24
2022-12-04T00:04:32.699Z,1024.27
2022-12-04T00:05:32.796Z,1024.30
2022-12-04T00:06:32.991Z,1024.28
2022-12-04T00:07:33.202Z,1024.28
2022-12-04T00:08:33.348Z,1024.30
2022-12-04T00:09:33.519Z,1024.27
2022-12-04T00:10:33.708Z,1024.27
2022-12-04T00:11:33.878Z,1024.27
2022-12-04T00:12:34.047Z,1024.28
2022-12-04T00:13:34.237Z,1024.30
2022-12-04T00:14:34.512Z,1024.24
2022-12-04T00:15:34.591Z,1024.28
2022-12-04T00:16:34.863Z,1024.27
2022-12-04T00:17:34.967Z,1024.28
2022-12-04T00:18:35.177Z,1024.31
2022-12-04T00:19:35.329Z,1024.32
2022-12-04T00:20:35.516Z,1024.32
2022-12-04T00:21:35.657Z,1024.30
2022-12-04T00:22:35.843Z,1024.27
2022-12-04T00:23:36.036Z,1024.27
2022-12-04T00:24:36.188Z,1024.26
2022-12-04T00:25:40.967Z,1024.21
2022-12-04T00:26:37.539Z,1024.23
2022-12-04T00:27:36.744Z,1024.19
2022-12-04T00:28:37.917Z,1024.24
2022-12-04T00:29:37.042Z,1024.20
2022-12-04T00:30:37.248Z,1024.21
2022-12-04T00:31:37.482Z,1024.27
2022-12-04T00:32:37.585Z,1024.26
2022-12-04T00:33:37.755Z,1024.28
2022-12-04T00:34:37.906Z,1024.23
2022-12-04T00:35:38.102Z,1024.24
2022-12-04T00:36:38.266Z,1024.24
2022-12-04T00:37:38.417Z,1024.22
2022-12-04T00:38:38.627Z,1024.20
2022-12-04T00:39:38.764Z,1024.20
2022-12-04T00:40:38.964Z,1024.19
2022-12-04T00:41:39.111Z,1024.20
2022-12-04T00:42:39.294Z,1024.16
2022-12-04T00:43:39.492Z,1024.19
2022-12-04T00:44:39.645Z,1024.12
2022-12-04T00:45:39.882Z,1024.10
2022-12-04T00:46:39.992Z,1024.12
2022-12-04T00:47:40.183Z,1024.16
2022-12-04T00:48:40.383Z,1024.17
2022-12-04T00:49:40.536Z,1024.10
2022-12-04T00:50:40.730Z,1024.16
2022-12-04T00:51:40.923Z,1024.17
2022-12-04T00:52:41.118Z,1024.17
2022-12-04T00:53:41.302Z,1024.16
2022-12-04T00:54:41.433Z,1024.17
2022-12-04T00:55:41.617Z,1024.19
2022-12-04T00:56:41.791Z,1024.20
2022-12-04T00:57:41.984Z,1024.23
2022-12-04T00:58:42.150Z,1024.22
2022-12-04T00:59:42.303Z,1024.17
2022-12-04T01:00:42.541Z,1024.14
2022-12-04T01:01:42.792Z,1024.12
2022-12-04T01:02:42.966Z,1024.13
2022-12-04T01:03:43.019Z,1024.15
2022-12-04T01:04:43.185Z,1024.11
2022-12-04T01:05:43.362Z,1024.12
2022-12-04T01:06:43.549Z,1024.12
2022-12-04T01:07:43.744Z,1024.11
2022-12-04T01:08:43.934Z,1024.13
2022-12-04T01:09:44.110Z,1024.16
2022-12-04T01:10:44.259Z,1024.13
2022-12-04T01:11:44.428Z,1024.07
2022-12-04T01:12:44.807Z,1024.11
2022-12-04T01:13:44.818Z,1024.14
2022-12-04T01:14:44.948Z,1024.15
2022-12-04T01:15:45.159Z,1024.08
2022-12-04T01:16:45.411Z,1024.09
2022-12-04T01:17:45.484Z,1024.08
2022-12-04T01:18:45.679Z,1024.13
2022-12-04T01:19:45.818Z,1024.12
2022-12-04T01:20:46.002Z,1024.11
2022-12-04T01:21:46.177Z,1024.11
2022-12-04T01:22:46.359Z,1024.08
2022-12-04T01:23:46.586Z,1024.14
2022-12-04T01:24:46.728Z,1024.14
2022-12-04T01:25:46.886Z,1024.14
2022-12-04T01:26:47.066Z,1024.15
2022-12-04T01:27:47.248Z,1024.12
2022-12-04T01:28:47.436Z,1024.16
2022-12-04T01:29:47.590Z,1024.14
2022-12-04T01:30:47.771Z,1024.16
2022-12-04T01:31:48.000Z,1024.25
2022-12-04T01:32:48.116Z,1024.24
2022-12-04T01:33:48.305Z,1024.18
2022-12-04T01:34:48.480Z,1024.20
2022-12-04T01:35:48.685Z,1024.19
2022-12-04T01:36:48.857Z,1024.19
2022-12-04T01:37:49.014Z,1024.20
2022-12-04T01:38:49.209Z,1024.17
2022-12-04T01:39:49.336Z,1024.17
2022-12-04T01:40:49.524Z,1024.10
2022-12-04T01:41:49.715Z,1024.13
2022-12-04T01:42:49.924Z,1024.09
2022-12-04T01:43:50.074Z,1024.05
2022-12-04T01:44:50.264Z,1024.07
2022-12-04T01:45:50.499Z,1024.05
2022-12-04T01:46:50.604Z,1024.04
2022-12-04T01:47:50.784Z,1024.05
2022-12-04T01:48:51.481Z,1024.01
2022-12-04T01:49:51.120Z,1023.99
2022-12-04T01:50:51.314Z,1023.95
2022-12-04T01:51:51.463Z,1023.97
2022-12-04T01:52:51.649Z,1023.91
2022-12-04T01:53:51.843Z,1023.93
2022-12-04T01:54:51.984Z,1023.94
2022-12-04T01:55:52.163Z,1023.91
2022-12-04T01:56:52.355Z,1023.93
2022-12-04T01:57:52.523Z,1023.89
2022-12-04T01:58:52.723Z,1023.92
2022-12-04T01:59:53.299Z,1023.93
2022-12-04T02:00:55.793Z,1023.93
2022-12-04T02:01:54.346Z,1023.93
2022-12-04T02:02:53.433Z,1023.93
2022-12-04T02:03:53.567Z,1023.90
2022-12-04T02:04:53.730Z,1023.90
2022-12-04T02:05:53.881Z,1023.89
2022-12-04T02:06:54.061Z,1023.91
2022-12-04T02:07:54.295Z,1023.88
2022-12-04T02:08:54.431Z,1023.89
2022-12-04T02:09:54.879Z,1023.92
2022-12-04T02:10:54.744Z,1023.95
2022-12-04T02:11:54.963Z,1023.90
2022-12-04T02:12:55.118Z,1023.83
2022-12-04T02:13:55.320Z,1023.87
2022-12-04T02:14:55.479Z,1023.80
2022-12-04T02:15:55.623Z,1023.79
2022-12-04T02:16:55.862Z,1023.77
2022-12-04T02:17:55.993Z,1023.77
2022-12-04T02:18:56.179Z,1023.79
2022-12-04T02:19:56.621Z,1023.79
2022-12-04T02:20:56.561Z,1023.74
2022-12-04T02:21:56.708Z,1023.77
2022-12-04T02:22:56.889Z,1023.74
2022-12-04T02:23:57.589Z,1023.71
2022-12-04T02:24:57.228Z,1023.74
2022-12-04T02:25:57.411Z,1023.77
2022-12-04T02:26:57.611Z,1023.74
2022-12-04T02:27:57.827Z,1023.76
2022-12-04T02:28:57.967Z,1023.75
2022-12-04T02:29:58.259Z,1023.75
2022-12-04T02:30:58.351Z,1023.72
2022-12-04T02:31:58.469Z,1023.74
2022-12-04T02:32:58.673Z,1023.75
2022-12-04T02:33:58.887Z,1023.70
2022-12-04T02:34:59.016Z,1023.71
2022-12-04T02:35:59.209Z,1023.65
2022-12-04T02:36:59.367Z,1023.63
2022-12-04T02:37:59.545Z,1023.62
2022-12-04T02:38:59.737Z,1023.60
2022-12-04T02:39:59.886Z,1023.55
2022-12-04T02:41:00.090Z,1023.51
2022-12-04T02:42:00.268Z,1023.55
2022-12-04T02:43:00.436Z,1023.47
2022-12-04T02:44:00.635Z,1023.48
2022-12-04T02:45:00.779Z,1023.41
2022-12-04T02:46:00.998Z,1023.41
2022-12-04T02:47:01.121Z,1023.43
2022-12-04T02:48:01.325Z,1023.42
2022-12-04T02:49:01.534Z,1023.30
2022-12-04T02:50:01.655Z,1023.38
2022-12-04T02:51:01.879Z,1023.34
2022-12-04T02:52:02.044Z,1023.32
2022-12-04T02:53:02.226Z,1023.26
2022-12-04T02:54:02.403Z,1023.25
2022-12-04T02:55:08.015Z,1023.28
2022-12-04T02:56:03.756Z,1023.29
2022-12-04T02:57:02.934Z,1023.33
2022-12-04T02:58:03.113Z,1023.33
2022-12-04T02:59:03.350Z,1023.37
2022-12-04T03:00:03.473Z,1023.35
2022-12-04T03:01:03.716Z,1023.33
2022-12-04T03:02:03.884Z,1023.36
2022-12-04T03:03:04.016Z,1023.35
2022-12-04T03:04:04.212Z,1023.38
2022-12-04T03:05:04.351Z,1023.38
2022-12-04T03:06:04.513Z,1023.37
2022-12-04T03:07:04.712Z,1023.41
2022-12-04T03:08:05.534Z,1023.38
2022-12-04T03:09:05.072Z,1023.42
2022-12-04T03:10:05.230Z,1023.43
2022-12-04T03:11:05.391Z,1023.37
2022-12-04T03:12:05.592Z,1023.32
2022-12-04T03:13:05.761Z,1023.32
2022-12-04T03:14:05.952Z,1023.32
2022-12-04T03:15:06.120Z,1023.34
2022-12-04T03:16:06.269Z,1023.35
2022-12-04T03:17:06.533Z,1023.37
2022-12-04T03:18:06.644Z,1023.42
2022-12-04T03:19:06.870Z,1023.46
2022-12-04T03:20:06.980Z,1023.51
2022-12-04T03:21:07.159Z,1023.51
2022-12-04T03:22:07.340Z,1023.56
2022-12-04T03:23:07.523Z,1023.60
2022-12-04T03:24:07.728Z,1023.54
2022-12-04T03:25:07.873Z,1023.51
2022-12-04T03:26:08.050Z,1023.53
2022-12-04T03:27:08.243Z,1023.54
2022-12-04T03:28:08.413Z,1023.56
2022-12-04T03:29:08.604Z,1023.55
2022-12-04T03:30:08.755Z,1023.53
2022-12-04T03:31:08.942Z,1023.53
2022-12-04T03:32:09.099Z,1023.56
2022-12-04T03:33:09.287Z,1023.57
2022-12-04T03:34:09.478Z,1023.58
2022-12-04T03:35:09.637Z,1023.55
2022-12-04T03:36:09.787Z,1023.55
2022-12-04T03:37:09.967Z,1023.50
2022-12-04T03:38:10.167Z,1023.49
2022-12-04T03:39:10.341Z,1023.51
2022-12-04T03:40:10.494Z,1023.56
2022-12-04T03:41:10.648Z,1023.57
2022-12-04T03:42:10.816Z,1023.57
2022-12-04T03:43:11.018Z,1023.56
2022-12-04T03:44:11.230Z,1023.55
2022-12-04T03:45:11.361Z,1023.56
2022-12-04T03:46:11.626Z,1023.55
2022-12-04T03:47:11.759Z,1023.61
2022-12-04T03:48:11.895Z,1023.55
2022-12-04T03:49:12.095Z,1023.53
2022-12-04T03:50:12.265Z,1023.52
2022-12-04T03:51:12.425Z,1023.48
2022-12-04T03:52:12.585Z,1023.51
2022-12-04T03:53:12.735Z,1023.51
2022-12-04T03:54:12.917Z,1023.51
2022-12-04T03:55:13.070Z,1023.53
2022-12-04T03:56:13.247Z,1023.50
2022-12-04T03:57:13.424Z,1023.56
2022-12-04T03:58:13.583Z,1023.55
2022-12-04T03:59:13.796Z,1023.48
2022-12-04T04:00:13.945Z,1023.51
2022-12-04T04:01:14.166Z,1023.50
2022-12-04T04:02:14.358Z,1023.46
2022-12-04T04:03:14.463Z,1023.43
2022-12-04T04:04:14.642Z,1023.46
2022-12-04T04:05:14.793Z,1023.43
2022-12-04T04:06:14.971Z,1023.43
2022-12-04T04:07:15.148Z,1023.40
2022-12-04T04:08:15.330Z,1023.42
2022-12-04T04:09:15.502Z,1023.44
2022-12-04T04:10:15.660Z,1023.43
2022-12-04T04:11:15.833Z,1023.51
2022-12-04T04:12:16.026Z,1023.45
2022-12-04T04:13:16.172Z,1023.47
2022-12-04T04:14:16.345Z,1023.51
2022-12-04T04:15:16.510Z,1023.47
2022-12-04T04:16:16.773Z,1023.48
2022-12-04T04:17:16.855Z,1023.48
2022-12-04T04:18:17.001Z,1023.44
2022-12-04T04:19:17.197Z,1023.49
2022-12-04T04:20:17.334Z,1023.44
2022-12-04T04:21:17.507Z,1023.48
2022-12-04T04:22:17.687Z,1023.43
2022-12-04T04:23:17.860Z,1023.43
2022-12-04T04:24:18.064Z,1023.39
2022-12-04T04:25:18.220Z,1023.36
2022-12-04T04:26:18.401Z,1023.36
2022-12-04T04:27:18.561Z,1023.33
2022-12-04T04:28:18.731Z,1023.30
2022-12-04T04:29:18.891Z,1023.29
2022-12-04T04:30:19.070Z,1023.31
2022-12-04T04:31:19.335Z,1023.30
2022-12-04T04:32:19.446Z,1023.31
2022-12-04T04:33:19.654Z,1023.30
2022-12-04T04:34:19.809Z,1023.33
2022-12-04T04:35:19.961Z,1023.34
2022-12-04T04:36:20.139Z,1023.37
2022-12-04T04:37:20.307Z,1023.36
2022-12-04T04:38:20.496Z,1023.32
2022-12-04T04:39:20.651Z,1023.28
2022-12-04T04:40:20.802Z,1023.26
2022-12-04T04:41:20.983Z,1023.26
2022-12-04T04:42:21.171Z,1023.31
2022-12-04T04:43:21.362Z,1023.33
2022-12-04T04:44:21.557Z,1023.34
2022-12-04T04:45:21.697Z,1023.34
2022-12-04T04:46:21.933Z,1023.32
2022-12-04T04:47:22.058Z,1023.32
2022-12-04T04:48:22.238Z,1023.28
2022-12-04T04:49:22.427Z,1023.29
2022-12-04T04:50:22.588Z,1023.31
2022-12-04T04:51:22.776Z,1023.28
2022-12-04T04:52:22.975Z,1023.27
2022-12-04T04:53:23.147Z,1023.30
2022-12-04T04:54:23.358Z,1023.30
2022-12-04T04:55:23.510Z,1023.33
2022-12-04T04:56:23.707Z,1023.32
2022-12-04T04:57:23.886Z,1023.30
2022-12-04T04:58:24.076Z,1023.28
2022-12-04T04:59:24.277Z,1023.32
2022-12-04T05:00:24.457Z,1023.35
2022-12-04T05:01:24.659Z,1023.33
2022-12-04T05:02:24.868Z,1023.32
2022-12-04T05:03:25.062Z,1023.35
2022-12-04T05:04:25.173Z,1023.34
2022-12-04T05:05:25.327Z,1023.36
2022-12-04T05:06:25.525Z,1023.34
2022-12-04T05:07:25.695Z,1023.41
2022-12-04T05:08:25.881Z,1023.37
2022-12-04T05:09:26.083Z,1023.38
2022-12-04T05:10:26.235Z,1023.38
2022-12-04T05:11:26.404Z,1023.37
2022-12-04T05:12:26.586Z,1023.36
2022-12-04T05:13:26.764Z,1023.39
2022-12-04T05:14:26.991Z,1023.40
2022-12-04T05:15:27.113Z,1023.42
2022-12-04T05:16:27.404Z,1023.47
2022-12-04T05:17:27.463Z,1023.46
2022-12-04T05:18:27.654Z,1023.42
2022-12-04T05:19:27.848Z,1023.44
2022-12-04T05:20:27.988Z,1023.43
2022-12-04T05:21:28.173Z,1023.45
2022-12-04T05:22:28.364Z,1023.41
2022-12-04T05:23:28.545Z,1023.41
2022-12-04T05:24:28.742Z,1023.41
2022-12-04T05:25:28.894Z,1023.38
2022-12-04T05:26:29.078Z,1023.42
2022-12-04T05:27:29.253Z,1023.37
2022-12-04T05:28:29.422Z,1023.39
2022-12-04T05:29:35.596Z,1023.42
2022-12-04T05:30:30.792Z,1023.39
2022-12-04T05:31:30.070Z,1023.37
2022-12-04T05:32:30.141Z,1023.32
2022-12-04T05:33:30.322Z,1023.37
2022-12-04T05:34:30.521Z,1023.32
2022-12-04T05:35:30.671Z,1023.35
2022-12-04T05:36:30.863Z,1023.35
2022-12-04T05:37:31.030Z,1023.33
2022-12-04T05:38:31.210Z,1023.35
2022-12-04T05:39:31.403Z,1023.37
2022-12-04T05:40:31.597Z,1023.35
2022-12-04T05:41:31.770Z,1023.36
2022-12-04T05:42:31.950Z,1023.34
2022-12-04T05:43:32.131Z,1023.40
2022-12-04T05:44:32.331Z,1023.43
2022-12-04T05:45:32.479Z,1023.43
2022-12-04T05:46:32.692Z,1023.40
2022-12-04T05:47:32.839Z,1023.41
2022-12-04T05:48:33.030Z,1023.39
2022-12-04T05:49:33.211Z,1023.42
2022-12-04T05:50:33.370Z,1023.38
2022-12-04T05:51:33.521Z,1023.39
2022-12-04T05:52:33.689Z,1023.34
2022-12-04T05:53:33.868Z,1023.44
2022-12-04T05:54:34.059Z,1023.40
2022-12-04T05:55:34.200Z,1023.46
2022-12-04T05:56:34.378Z,1023.37
2022-12-04T05:57:34.567Z,1023.38
2022-12-04T05:58:34.758Z,1023.34
2022-12-04T05:59:34.936Z,1023.29
2022-12-04T06:00:35.111Z,1023.29
2022-12-04T06:01:35.306Z,1023.31
2022-12-04T06:02:35.502Z,1023.27
2022-12-04T06:03:35.638Z,1023.28
2022-12-04T06:04:35.778Z,1023.30
2022-12-04T06:05:35.927Z,1023.34
2022-12-04T06:06:36.107Z,1023.27
2022-12-04T06:07:36.332Z,1023.25
2022-12-04T06:08:36.462Z,1023.23
2022-12-04T06:09:36.654Z,1023.26
2022-12-04T06:10:36.816Z,1023.30
2022-12-04T06:11:36.996Z,1023.28
2022-12-04T06:12:37.176Z,1023.27
2022-12-04T06:13:37.346Z,1023.29
2022-12-04T06:14:39.799Z,1023.27
2022-12-04T06:15:37.715Z,1023.27
2022-12-04T06:16:37.979Z,1023.26
2022-12-04T06:17:38.055Z,1023.25
2022-12-04T06:18:38.235Z,1023.29
2022-12-04T06:19:38.427Z,1023.23
2022-12-04T06:20:38.695Z,1023.29
2022-12-04T06:21:38.765Z,1023.28
2022-12-04T06:22:38.955Z,1023.28
2022-12-04T06:23:39.123Z,1023.30
2022-12-04T06:24:39.324Z,1023.37
2022-12-04T06:25:39.473Z,1023.33
2022-12-04T06:26:57.506Z,1023.33
2022-12-04T06:27:40.839Z,1023.34
2022-12-04T06:28:39.995Z,1023.36
2022-12-04T06:29:40.184Z,1023.39
2022-12-04T06:30:40.334Z,1023.39
2022-12-04T06:31:40.536Z,1023.38
2022-12-04T06:32:40.691Z,1023.36
2022-12-04T06:33:40.863Z,1023.31
2022-12-04T06:34:41.066Z,1023.31
2022-12-04T06:35:41.204Z,1023.34
2022-12-04T06:36:41.406Z,1023.31
2022-12-04T06:37:41.543Z,1023.32
2022-12-04T06:38:41.732Z,1023.36
2022-12-04T06:39:41.976Z,1023.31
2022-12-04T06:40:42.099Z,1023.36
2022-12-04T06:41:42.249Z,1023.36
2022-12-04T06:42:42.432Z,1023.37
2022-12-04T06:43:42.611Z,1023.40
2022-12-04T06:44:42.814Z,1023.33
2022-12-04T06:45:42.993Z,1023.33
2022-12-04T06:46:46.911Z,1023.30
2022-12-04T06:47:43.312Z,1023.28
2022-12-04T06:48:43.523Z,1023.24
2022-12-04T06:49:43.684Z,1023.29
2022-12-04T06:50:43.850Z,1023.30
2022-12-04T06:51:44.030Z,1023.28
2022-12-04T06:52:44.204Z,1023.31
2022-12-04T06:53:44.382Z,1023.31
2022-12-04T06:54:44.560Z,1023.32
2022-12-04T06:55:44.743Z,1023.31
2022-12-04T06:56:44.919Z,1023.35
2022-12-04T06:57:45.086Z,1023.34
2022-12-04T06:58:45.247Z,1023.37
2022-12-04T06:59:45.439Z,1023.34
2022-12-04T07:00:45.620Z,1023.31
2022-12-04T07:01:45.765Z,1023.32
2022-12-04T07:02:46.022Z,1023.34
2022-12-04T07:03:51.003Z,1023.30
2022-12-04T07:04:47.323Z,1023.39
2022-12-04T07:05:46.450Z,1023.35
2022-12-04T07:06:46.655Z,1023.32
2022-12-04T07:07:46.924Z,1023.33
2022-12-04T07:08:46.984Z,1023.32
2022-12-04T07:09:47.187Z,1023.31
2022-12-04T07:10:47.314Z,1023.36
2022-12-04T07:11:47.467Z,1023.34
2022-12-04T07:12:47.638Z,1023.36
2022-12-04T07:13:47.798Z,1023.36
2022-12-04T07:14:48.007Z,1023.30
2022-12-04T07:15:48.148Z,1023.33
2022-12-04T07:16:48.412Z,1023.30
2022-12-04T07:17:48.476Z,1023.26
2022-12-04T07:18:48.656Z,1023.28
2022-12-04T07:19:48.841Z,1023.28
2022-12-04T07:20:49.008Z,1023.26
2022-12-04T07:21:49.187Z,1023.24
2022-12-04T07:22:49.358Z,1023.24
2022-12-04T07:23:49.516Z,1023.25
2022-12-04T07:24:49.716Z,1023.22
2022-12-04T07:25:49.855Z,1023.24
2022-12-04T07:26:50.050Z,1023.24
2022-12-04T07:27:50.245Z,1023.21
2022-12-04T07:28:50.399Z,1023.23
2022-12-04T07:29:50.584Z,1023.25
2022-12-04T07:30:50.766Z,1023.20
2022-12-04T07:31:50.955Z,1023.22
2022-12-04T07:32:51.104Z,1023.24
2022-12-04T07:33:51.275Z,1023.29
2022-12-04T07:34:51.465Z,1023.25
2022-12-04T07:35:51.630Z,1023.26
2022-12-04T07:36:51.783Z,1023.25
2022-12-04T07:37:51.944Z,1023.27
2022-12-04T07:38:52.132Z,1023.34
2022-12-04T07:39:52.412Z,1023.33
2022-12-04T07:40:52.455Z,1023.39
2022-12-04T07:41:52.616Z,1023.40
2022-12-04T07:42:52.793Z,1023.42
2022-12-04T07:43:52.950Z,1023.36
2022-12-04T07:44:53.144Z,1023.38
2022-12-04T07:45:53.361Z,1023.40
2022-12-04T07:46:53.453Z,1023.46
2022-12-04T07:47:53.623Z,1023.44
2022-12-04T07:48:53.793Z,1023.46
2022-12-04T07:49:54.374Z,1023.44
2022-12-04T07:50:54.151Z,1023.46
2022-12-04T07:51:54.323Z,1023.46
2022-12-04T07:52:54.485Z,1023.43
2022-12-04T07:53:54.642Z,1023.44
2022-12-04T07:54:54.835Z,1023.42
2022-12-04T07:55:55.002Z,1023.38
2022-12-04T07:56:55.162Z,1023.36
2022-12-04T07:57:55.336Z,1023.34
2022-12-04T07:58:55.510Z,1023.33
2022-12-04T07:59:56.014Z,1023.32
2022-12-04T08:00:55.892Z,1023.34
2022-12-04T08:01:56.047Z,1023.33
2022-12-04T08:02:56.205Z,1023.35
2022-12-04T08:03:56.359Z,1023.39
2022-12-04T08:04:56.580Z,1023.41
2022-12-04T08:05:56.699Z,1023.42
2022-12-04T08:06:56.873Z,1023.43
2022-12-04T08:07:57.083Z,1023.44
2022-12-04T08:08:57.217Z,1023.43
2022-12-04T08:09:57.704Z,1023.44
2022-12-04T08:10:57.550Z,1023.42
2022-12-04T08:11:57.711Z,1023.43
2022-12-04T08:12:57.879Z,1023.47
2022-12-04T08:13:58.053Z,1023.40
2022-12-04T08:14:58.245Z,1023.43
2022-12-04T08:15:58.397Z,1023.42
2022-12-04T08:16:58.600Z,1023.46
2022-12-04T08:17:58.749Z,1023.43
2022-12-04T08:18:58.909Z,1023.49
2022-12-04T08:19:59.089Z,1023.45
2022-12-04T08:20:59.259Z,1023.43
2022-12-04T08:21:59.418Z,1023.45
2022-12-04T08:22:59.597Z,1023.49
2022-12-04T08:23:59.757Z,1023.54
2022-12-04T08:24:59.956Z,1023.55
2022-12-04T08:26:00.099Z,1023.60
2022-12-04T08:27:00.277Z,1023.65
2022-12-04T08:28:00.445Z,1023.67
2022-12-04T08:29:00.601Z,1023.65
2022-12-04T08:30:01.736Z,1023.63
2022-12-04T08:31:00.996Z,1023.59
2022-12-04T08:32:01.129Z,1023.57
2022-12-04T08:33:01.297Z,1023.54
2022-12-04T08:34:01.458Z,1023.54
2022-12-04T08:35:01.645Z,1023.56
2022-12-04T08:36:01.806Z,1023.56
2022-12-04T08:37:01.976Z,1023.55
2022-12-04T08:38:02.126Z,1023.58
2022-12-04T08:39:02.295Z,1023.50
2022-12-04T08:40:02.487Z,1023.51
2022-12-04T08:41:02.645Z,1023.53
2022-12-04T08:42:02.825Z,1023.57
2022-12-04T08:43:02.988Z,1023.58
2022-12-04T08:44:03.156Z,1023.59
2022-12-04T08:45:03.343Z,1023.57
2022-12-04T08:46:03.523Z,1023.54
2022-12-04T08:47:03.655Z,1023.54
2022-12-04T08:48:03.825Z,1023.52
2022-12-04T08:49:04.010Z,1023.58
2022-12-04T08:50:04.171Z,1023.54
2022-12-04T08:51:04.363Z,1023.53
2022-12-04T08:52:04.531Z,1023.46
2022-12-04T08:53:04.685Z,1023.43
2022-12-04T08:54:04.867Z,1023.44
2022-12-04T08:55:05.043Z,1023.46
2022-12-04T08:56:05.204Z,1023.47
2022-12-04T08:57:05.366Z,1023.48
2022-12-04T08:58:05.534Z,1023.46
2022-12-04T08:59:05.697Z,1023.44
2022-12-04T09:00:05.874Z,1023.48
2022-12-04T09:01:06.128Z,1023.46
2022-12-04T09:02:06.340Z,1023.46
2022-12-04T09:03:06.393Z,1023.46
2022-12-04T09:04:06.619Z,1023.49
2022-12-04T09:05:06.743Z,1023.49
2022-12-04T09:06:06.922Z,1023.52
2022-12-04T09:07:07.088Z,1023.51
2022-12-04T09:08:07.289Z,1023.52
2022-12-04T09:09:07.431Z,1023.53
2022-12-04T09:10:07.643Z,1023.57
2022-12-04T09:11:07.763Z,1023.55
2022-12-04T09:12:07.951Z,1023.58
2022-12-04T09:13:08.120Z,1023.60
2022-12-04T09:14:08.281Z,1023.61
2022-12-04T09:15:08.490Z,1023.68
2022-12-04T09:16:08.862Z,1023.65
2022-12-04T09:17:08.777Z,1023.63
2022-12-04T09:18:08.951Z,1023.58
2022-12-04T09:19:09.110Z,1023.55
2022-12-04T09:20:09.314Z,1023.58
2022-12-04T09:21:09.450Z,1023.55
2022-12-04T09:22:09.629Z,1023.58
2022-12-04T09:23:09.795Z,1023.53
2022-12-04T09:24:09.964Z,1023.51
2022-12-04T09:25:10.131Z,1023.49
2022-12-04T09:26:10.307Z,1023.53
2022-12-04T09:27:14.771Z,1023.46
2022-12-04T09:28:10.649Z,1023.49
2022-12-04T09:29:10.835Z,1023.48
2022-12-04T09:30:11.018Z,1023.51
2022-12-04T09:31:11.200Z,1023.56
2022-12-04T09:32:11.327Z,1023.57
2022-12-04T09:33:11.488Z,1023.60
2022-12-04T09:34:11.678Z,1023.55
2022-12-04T09:35:11.827Z,1023.50
2022-12-04T09:36:11.996Z,1023.53
2022-12-04T09:37:12.159Z,1023.51
2022-12-04T09:38:12.355Z,1023.52
2022-12-04T09:39:12.523Z,1023.50
2022-12-04T09:40:12.678Z,1023.52
2022-12-04T09:41:12.839Z,1023.53
2022-12-04T09:42:13.007Z,1023.53
2022-12-04T09:43:13.188Z,1023.51
2022-12-04T09:44:13.364Z,1023.48
2022-12-04T09:45:13.558Z,1023.44
2022-12-04T09:46:13.740Z,1023.47
2022-12-04T09:47:13.865Z,1023.45
2022-12-04T09:48:14.036Z,1023.42
2022-12-04T09:49:14.218Z,1023.43
2022-12-04T09:50:14.386Z,1023.49
2022-12-04T09:51:14.546Z,1023.43
2022-12-04T09:52:18.844Z,1023.38
2022-12-04T09:53:15.875Z,1023.38
2022-12-04T09:54:15.045Z,1023.39
2022-12-04T09:55:15.228Z,1023.34
2022-12-04T09:56:15.397Z,1023.35
2022-12-04T09:57:15.576Z,1023.33
2022-12-04T09:58:15.755Z,1023.34
2022-12-04T09:59:15.941Z,1023.31
2022-12-04T10:00:16.114Z,1023.32
2022-12-04T10:01:16.288Z,1023.27
2022-12-04T10:02:16.460Z,1023.22
2022-12-04T10:03:16.817Z,1023.27
2022-12-04T10:04:16.857Z,1023.24
2022-12-04T10:05:16.987Z,1023.20
2022-12-04T10:06:17.163Z,1023.17
2022-12-04T10:07:17.344Z,1023.13
2022-12-04T10:08:17.627Z,1023.13
2022-12-04T10:09:17.695Z,1023.11
2022-12-04T10:10:17.904Z,1023.07
2022-12-04T10:11:18.044Z,1023.07
2022-12-04T10:12:18.232Z,1023.14
2022-12-04T10:13:18.421Z,1023.10
2022-12-04T10:14:18.608Z,1023.07
2022-12-04T10:15:18.924Z,1023.07
2022-12-04T10:16:19.019Z,1023.02
2022-12-04T10:17:19.123Z,1022.98
2022-12-04T10:18:19.312Z,1022.94
2022-12-04T10:19:19.494Z,1022.99
2022-12-04T10:20:19.691Z,1022.97
2022-12-04T10:21:19.893Z,1022.98
2022-12-04T10:22:20.032Z,1022.93
2022-12-04T10:23:20.254Z,1022.91
2022-12-04T10:24:20.422Z,1022.89
2022-12-04T10:25:20.555Z,1022.90
2022-12-04T10:26:20.761Z,1022.89
2022-12-04T10:27:20.902Z,1022.92
2022-12-04T10:28:21.099Z,1022.92
2022-12-04T10:29:21.290Z,1022.90
2022-12-04T10:30:21.490Z,1022.92
2022-12-04T10:31:21.733Z,1022.90
2022-12-04T10:32:21.823Z,1022.94
2022-12-04T10:33:21.971Z,1022.92
2022-12-04T10:34:22.172Z,1022.94
2022-12-04T10:35:22.331Z,1022.96
2022-12-04T10:36:22.511Z,1023.01
2022-12-04T10:37:22.690Z,1022.95
2022-12-04T10:38:22.876Z,1023.00
2022-12-04T10:39:23.073Z,1023.02
2022-12-04T10:40:23.247Z,1023.02
2022-12-04T10:41:23.404Z,1023.01
2022-12-04T10:42:23.589Z,1023.03
2022-12-04T10:43:23.779Z,1022.99
2022-12-04T10:44:23.949Z,1023.00
2022-12-04T10:45:24.098Z,1022.97
2022-12-04T10:46:24.356Z,1022.95
2022-12-04T10:47:24.475Z,1022.96
2022-12-04T10:48:24.640Z,1022.97
2022-12-04T10:49:24.831Z,1023.01
2022-12-04T10:50:25.002Z,1022.92
2022-12-04T10:51:25.160Z,1022.92
2022-12-04T10:52:25.340Z,1022.88
2022-12-04T10:53:25.531Z,1022.85
2022-12-04T10:54:25.718Z,1022.87
2022-12-04T10:55:25.869Z,1022.86
2022-12-04T10:56:26.071Z,1022.87
2022-12-04T10:57:26.227Z,1022.90
2022-12-04T10:58:26.409Z,1022.91
2022-12-04T10:59:26.609Z,1022.87
2022-12-04T11:00:26.767Z,1022.88
2022-12-04T11:01:26.990Z,1022.86
2022-12-04T11:02:27.321Z,1022.88
2022-12-04T11:03:27.524Z,1022.80
2022-12-04T11:04:27.483Z,1022.79
2022-12-04T11:05:27.637Z,1022.74
2022-12-04T11:06:27.849Z,1022.73
2022-12-04T11:07:28.026Z,1022.68
2022-12-04T11:08:28.252Z,1022.69
2022-12-04T11:09:28.367Z,1022.70
2022-12-04T11:10:28.527Z,1022.73
2022-12-04T11:11:28.734Z,1022.76
2022-12-04T11:12:28.876Z,1022.71
2022-12-04T11:13:29.225Z,1022.71
2022-12-04T11:14:29.276Z,1022.71
2022-12-04T11:15:29.441Z,1022.63
2022-12-04T11:16:29.636Z,1022.61
2022-12-04T11:17:29.774Z,1022.60
2022-12-04T11:18:29.959Z,1022.62
2022-12-04T11:19:30.124Z,1022.58
2022-12-04T11:20:30.294Z,1022.61
2022-12-04T11:21:30.455Z,1022.57
2022-12-04T11:22:30.658Z,1022.57
2022-12-04T11:23:30.813Z,1022.56
2022-12-04T11:24:31.013Z,1022.57
2022-12-04T11:25:31.184Z,1022.61
2022-12-04T11:26:31.344Z,1022.57
2022-12-04T11:27:31.523Z,1022.55
2022-12-04T11:28:41.569Z,1022.50
2022-12-04T11:29:32.893Z,1022.45
2022-12-04T11:30:32.065Z,1022.48
2022-12-04T11:31:32.294Z,1022.48
2022-12-04T11:32:32.404Z,1022.50
2022-12-04T11:33:32.573Z,1022.49
2022-12-04T11:34:32.775Z,1022.52
2022-12-04T11:35:32.923Z,1022.54
2022-12-04T11:36:33.091Z,1022.53
2022-12-04T11:37:33.272Z,1022.54
2022-12-04T11:38:33.439Z,1022.53
2022-12-04T11:39:33.646Z,1022.54
2022-12-04T11:40:33.792Z,1022.57
2022-12-04T11:41:33.973Z,1022.48
2022-12-04T11:42:34.161Z,1022.48
2022-12-04T11:43:34.351Z,1022.42
2022-12-04T11:44:34.530Z,1022.41
2022-12-04T11:45:34.671Z,1022.39
2022-12-04T11:46:35.016Z,1022.36
2022-12-04T11:47:35.030Z,1022.39
2022-12-04T11:48:35.233Z,1022.43
2022-12-04T11:49:39.548Z,1022.41
2022-12-04T11:50:36.583Z,1022.39
2022-12-04T11:51:35.751Z,1022.39
2022-12-04T11:52:35.939Z,1022.39
2022-12-04T11:53:36.110Z,1022.44
2022-12-04T11:54:36.307Z,1022.40
2022-12-04T11:55:36.460Z,1022.39
2022-12-04T11:56:36.633Z,1022.41
2022-12-04T11:57:36.799Z,1022.39
2022-12-04T11:58:36.961Z,1022.36
2022-12-04T11:59:37.153Z,1022.34
2022-12-04T12:00:37.291Z,1022.33
2022-12-04T12:01:37.509Z,1022.32
2022-12-04T12:02:37.704Z,1022.33
2022-12-04T12:03:37.849Z,1022.31
2022-12-04T12:04:37.968Z,1022.28
2022-12-04T12:05:38.133Z,1022.26
2022-12-04T12:06:38.318Z,1022.29
2022-12-04T12:07:38.528Z,1022.28